Terminal Aerodrome Forecast
Issued by NWS Melbourne, FL

Home | Current Version | Previous Version | Text Only | Print | Product List | Glossary On
Versions: 1 2 3 4 5 6 7 8 9 10 11 12 13 14 15
000
FTUS42 KMLB 070532
TAFDAB
TAF
KDAB 070532Z 0706/0806 30006KT P6SM FEW080
     FM071400 32012KT P6SM FEW040
     FM072100 02011KT P6SM FEW045
     FM080300 34008KT P6SM SKC=

USA.gov is the U.S. government's official web portal to all federal, state and local government web resources and services.